createdAt,value
2023-04-09T00:03:19.407Z,9.27
2023-04-09T00:07:21.397Z,9.83
2023-04-09T00:11:23.622Z,10.33
2023-04-09T00:15:31.055Z,9.73
2023-04-09T00:19:33.900Z,31.93
2023-04-09T00:23:36.623Z,10.77
2023-04-09T00:27:38.659Z,11.83
2023-04-09T00:31:40.849Z,11.27
2023-04-09T00:35:42.928Z,11.13
2023-04-09T00:39:45.145Z,11.43
2023-04-09T00:43:47.220Z,12.00
2023-04-09T00:47:49.829Z,10.53
2023-04-09T00:51:52.319Z,10.97
2023-04-09T00:55:55.655Z,10.03
2023-04-09T00:59:57.741Z,10.00
2023-04-09T01:04:00.159Z,10.87
2023-04-09T01:08:23.981Z,11.13
2023-04-09T01:12:57.313Z,10.60
2023-04-09T01:17:24.265Z,11.20
2023-04-09T01:21:31.328Z,11.10
2023-04-09T01:25:46.270Z,9.97
2023-04-09T01:29:52.860Z,10.43
2023-04-09T01:33:55.325Z,11.10
2023-04-09T01:37:58.244Z,11.20
2023-04-09T01:42:00.882Z,9.90
2023-04-09T01:46:03.718Z,10.37
2023-04-09T01:50:06.292Z,10.13
2023-04-09T01:54:09.610Z,9.23
2023-04-09T01:58:12.232Z,10.40
2023-04-09T02:02:21.186Z,10.43
2023-04-09T02:06:34.781Z,10.57
2023-04-09T02:10:39.952Z,10.60
2023-04-09T02:14:45.846Z,9.33
2023-04-09T02:18:47.698Z,9.30
2023-04-09T02:22:49.783Z,10.43
2023-04-09T02:26:52.356Z,10.47
2023-04-09T02:30:54.559Z,10.03
2023-04-09T02:34:56.560Z,9.83
2023-04-09T02:38:58.503Z,10.13
2023-04-09T02:43:00.509Z,10.67
2023-04-09T02:47:03.246Z,10.07
2023-04-09T02:51:08.319Z,9.50
2023-04-09T02:55:10.578Z,9.73
2023-04-09T02:59:12.860Z,9.63
2023-04-09T03:03:15.015Z,9.73
2023-04-09T03:07:17.001Z,9.17
2023-04-09T03:11:19.158Z,9.43
2023-04-09T03:15:21.576Z,9.93
2023-04-09T03:19:23.807Z,9.50
2023-04-09T03:23:25.903Z,10.37
2023-04-09T03:27:27.983Z,9.67
2023-04-09T03:31:32.734Z,9.73
2023-04-09T03:35:35.006Z,10.33
2023-04-09T03:39:38.210Z,10.20
2023-04-09T03:43:40.399Z,11.03
2023-04-09T03:47:43.841Z,9.87
2023-04-09T03:51:46.902Z,10.07
2023-04-09T03:55:49.289Z,10.13
2023-04-09T03:59:57.458Z,9.77
2023-04-09T04:04:01.214Z,9.77
2023-04-09T04:08:09.632Z,9.80
2023-04-09T04:12:11.765Z,10.03
2023-04-09T04:16:32.883Z,10.60
2023-04-09T04:20:38.348Z,12.23
2023-04-09T04:24:44.842Z,11.63
2023-04-09T04:28:52.126Z,12.40
2023-04-09T04:33:09.794Z,13.53
2023-04-09T04:37:21.301Z,13.13
2023-04-09T04:41:25.005Z,13.80
2023-04-09T04:45:36.319Z,14.07
2023-04-09T04:49:44.501Z,13.53
2023-04-09T04:53:46.752Z,15.07
2023-04-09T04:57:52.570Z,14.47
2023-04-09T05:01:57.863Z,14.80
2023-04-09T05:06:01.703Z,14.77
2023-04-09T05:10:11.193Z,14.47
2023-04-09T05:14:17.122Z,15.47
2023-04-09T05:18:19.429Z,14.77
2023-04-09T05:22:21.647Z,13.67
2023-04-09T05:26:24.186Z,13.07
2023-04-09T05:30:32.592Z,14.67
2023-04-09T05:34:38.156Z,13.50
2023-04-09T05:38:40.792Z,12.63
2023-04-09T05:42:42.879Z,14.23
2023-04-09T05:46:54.656Z,13.80
2023-04-09T05:51:02.211Z,14.33
2023-04-09T05:55:06.633Z,14.60
2023-04-09T05:59:19.679Z,15.50
2023-04-09T06:03:21.949Z,15.57
2023-04-09T06:07:24.241Z,14.33
2023-04-09T06:11:27.328Z,14.00
2023-04-09T06:15:29.320Z,14.03
2023-04-09T06:19:32.416Z,14.60
2023-04-09T06:23:35.869Z,13.57
2023-04-09T06:27:37.877Z,14.53
2023-04-09T06:31:41.183Z,15.03
2023-04-09T06:35:43.315Z,14.43
2023-04-09T06:39:58.215Z,13.77
2023-04-09T06:44:03.308Z,13.97
2023-04-09T06:48:05.784Z,15.20
2023-04-09T06:52:08.042Z,14.60
2023-04-09T06:56:10.477Z,15.07
2023-04-09T07:00:13.139Z,14.13
2023-04-09T07:04:15.596Z,14.83
2023-04-09T07:08:17.755Z,15.97
2023-04-09T07:12:34.595Z,16.40
2023-04-09T07:16:36.587Z,15.20
2023-04-09T07:20:38.836Z,17.33
2023-04-09T07:24:41.829Z,16.03
2023-04-09T07:28:44.071Z,16.80
2023-04-09T07:32:46.213Z,16.80
2023-04-09T07:36:48.610Z,17.30
2023-04-09T07:40:50.631Z,16.23
2023-04-09T07:44:52.488Z,15.33
2023-04-09T07:48:54.803Z,15.83
2023-04-09T07:52:57.431Z,15.87
2023-04-09T07:57:01.779Z,16.20
2023-04-09T08:01:04.462Z,15.37
2023-04-09T08:05:07.906Z,15.47
2023-04-09T08:09:10.253Z,15.73
2023-04-09T08:13:12.370Z,15.63
2023-04-09T08:17:14.358Z,15.43
2023-04-09T08:21:16.406Z,14.27
2023-04-09T08:25:18.972Z,14.97
2023-04-09T08:29:21.509Z,15.93
2023-04-09T08:33:23.665Z,15.13
2023-04-09T08:37:26.830Z,13.70
2023-04-09T08:41:29.780Z,12.70
2023-04-09T08:45:31.824Z,14.63
2023-04-09T08:49:34.073Z,14.67
2023-04-09T08:53:36.940Z,13.67
2023-04-09T08:57:40.144Z,14.43
2023-04-09T09:01:42.295Z,13.87
2023-04-09T09:05:46.498Z,13.30
2023-04-09T09:09:55.688Z,15.60
2023-04-09T09:13:59.975Z,11.17
2023-04-09T09:18:02.128Z,10.40
2023-04-09T09:22:07.753Z,11.20
2023-04-09T09:26:14.199Z,11.07
2023-04-09T09:30:24.536Z,8.90
2023-04-09T09:34:26.669Z,11.00
2023-04-09T09:38:28.865Z,9.80
2023-04-09T09:42:31.925Z,10.70
2023-04-09T09:46:36.382Z,10.33
2023-04-09T09:50:41.985Z,10.03
2023-04-09T09:54:48.434Z,10.67
2023-04-09T09:59:19.834Z,9.60
2023-04-09T10:03:25.630Z,9.07
2023-04-09T10:07:28.702Z,8.53
2023-04-09T10:11:36.618Z,9.20
2023-04-09T10:15:38.765Z,8.53
2023-04-09T10:19:52.267Z,6.33
2023-04-09T10:23:54.856Z,6.53
2023-04-09T10:28:13.664Z,7.47
2023-04-09T10:32:26.483Z,7.00
2023-04-09T10:36:31.898Z,7.80
2023-04-09T10:40:33.878Z,8.87
2023-04-09T10:44:41.487Z,8.10
2023-04-09T10:48:44.373Z,9.30
2023-04-09T10:52:47.314Z,7.70
2023-04-09T10:57:07.965Z,8.43
2023-04-09T11:01:10.405Z,9.07
2023-04-09T11:05:18.535Z,7.97
2023-04-09T11:09:20.570Z,9.17
2023-04-09T11:13:22.698Z,9.13
2023-04-09T11:17:24.788Z,9.27
2023-04-09T11:21:28.683Z,9.73
2023-04-09T11:25:32.982Z,9.73
2023-04-09T11:29:38.628Z,8.70
2023-04-09T11:33:40.771Z,9.30
2023-04-09T11:37:43.817Z,9.32
2023-04-09T11:41:47.737Z,9.27
2023-04-09T11:45:50.303Z,9.95
2023-04-09T11:49:52.871Z,10.88
2023-04-09T11:53:55.070Z,15.90
2023-04-09T11:58:01.467Z,10.40
2023-04-09T12:02:06.845Z,10.43
2023-04-09T12:06:11.664Z,10.50
2023-04-09T12:10:14.059Z,9.85
2023-04-09T12:14:17.602Z,9.50
2023-04-09T12:18:23.418Z,9.60
2023-04-09T12:22:25.546Z,8.87
2023-04-09T12:26:27.699Z,9.40
2023-04-09T12:30:29.666Z,9.37
2023-04-09T12:34:31.679Z,9.68
2023-04-09T12:38:33.625Z,7.63
2023-04-09T12:42:35.885Z,8.65
2023-04-09T12:46:38.052Z,8.68
2023-04-09T12:50:40.163Z,9.63
2023-04-09T12:54:42.427Z,8.25
2023-04-09T12:58:44.586Z,7.17
2023-04-09T13:02:47.142Z,7.10
2023-04-09T13:06:50.143Z,6.47
2023-04-09T13:10:52.273Z,6.85
2023-04-09T13:14:55.550Z,7.47
2023-04-09T13:18:57.673Z,7.80
2023-04-09T13:22:59.801Z,7.40
2023-04-09T13:27:03.042Z,6.85
2023-04-09T13:31:06.616Z,6.38
2023-04-09T13:35:10.293Z,5.70
2023-04-09T13:39:12.451Z,5.28
2023-04-09T13:43:14.576Z,5.63
2023-04-09T13:47:17.835Z,6.60
2023-04-09T13:51:19.879Z,6.20
2023-04-09T13:55:21.957Z,5.78
2023-04-09T13:59:23.982Z,6.18
2023-04-09T14:03:26.298Z,5.80
2023-04-09T14:07:28.478Z,6.25
2023-04-09T14:11:30.759Z,6.30
2023-04-09T14:15:33.917Z,6.07
2023-04-09T14:19:36.018Z,6.13
2023-04-09T14:23:39.838Z,5.80
2023-04-09T14:27:42.030Z,6.30
2023-04-09T14:31:44.424Z,6.68
2023-04-09T14:35:46.518Z,6.28
2023-04-09T14:39:48.523Z,9.68
2023-04-09T14:43:50.621Z,7.15
2023-04-09T14:47:53.705Z,6.70
2023-04-09T14:51:56.578Z,7.75
2023-04-09T14:55:58.641Z,7.05
2023-04-09T15:00:00.932Z,7.38
2023-04-09T15:04:03.145Z,7.30
2023-04-09T15:08:05.396Z,6.15
2023-04-09T15:12:09.025Z,6.00
2023-04-09T15:16:11.519Z,6.57
2023-04-09T15:20:14.136Z,7.05
2023-04-09T15:24:16.341Z,6.93
2023-04-09T15:28:18.560Z,7.43
2023-04-09T15:32:21.481Z,8.15
2023-04-09T15:36:23.692Z,7.25
2023-04-09T15:40:25.914Z,7.28
2023-04-09T15:44:27.972Z,6.55
2023-04-09T15:48:30.138Z,7.25
2023-04-09T15:52:32.295Z,9.35
2023-04-09T15:56:36.436Z,7.57
2023-04-09T16:00:38.616Z,8.68
2023-04-09T16:04:40.735Z,7.38
2023-04-09T16:08:43.003Z,6.78
2023-04-09T16:12:45.014Z,7.30
2023-04-09T16:16:50.076Z,6.68
2023-04-09T16:20:56.820Z,6.55
2023-04-09T16:24:59.518Z,7.45
2023-04-09T16:29:04.216Z,8.18
2023-04-09T16:33:08.781Z,8.00
2023-04-09T16:37:10.928Z,8.27
2023-04-09T16:41:13.157Z,8.73
2023-04-09T16:45:15.553Z,8.82
2023-04-09T16:49:17.796Z,8.25
2023-04-09T16:53:20.081Z,7.95
2023-04-09T16:57:22.706Z,7.80
2023-04-09T17:01:24.998Z,7.72
2023-04-09T17:05:27.380Z,7.53
2023-04-09T17:09:31.673Z,8.15
2023-04-09T17:13:37.968Z,15.60
2023-04-09T17:17:40.180Z,10.50
2023-04-09T17:21:42.422Z,8.65
2023-04-09T17:25:44.609Z,9.10
2023-04-09T17:29:46.746Z,8.68
2023-04-09T17:33:49.006Z,9.88
2023-04-09T17:37:51.368Z,11.07
2023-04-09T17:41:56.413Z,9.27
2023-04-09T17:45:58.592Z,8.02
2023-04-09T17:50:01.703Z,7.90
2023-04-09T17:54:04.646Z,9.57
2023-04-09T17:58:06.793Z,9.73
2023-04-09T18:02:09.197Z,8.38
2023-04-09T18:06:11.837Z,8.20
2023-04-09T18:10:13.928Z,7.70
2023-04-09T18:14:16.097Z,8.73
2023-04-09T18:18:18.425Z,7.93
2023-04-09T18:22:20.707Z,8.30
2023-04-09T18:26:22.804Z,8.00
2023-04-09T18:30:26.390Z,8.40
2023-04-09T18:34:29.090Z,13.43
2023-04-09T18:38:31.879Z,11.30
2023-04-09T18:42:34.207Z,12.50
2023-04-09T18:46:36.471Z,9.87
2023-04-09T18:50:38.579Z,9.70
2023-04-09T18:54:40.797Z,9.83
2023-04-09T18:58:42.795Z,16.33
2023-04-09T19:02:45.356Z,17.90
2023-04-09T19:06:49.371Z,20.33
2023-04-09T19:10:53.653Z,19.73
2023-04-09T19:14:55.999Z,39.13
2023-04-09T19:18:58.290Z,34.67
2023-04-09T19:23:01.110Z,26.93
2023-04-09T19:27:09.774Z,14.70
2023-04-09T19:31:14.497Z,40.77
2023-04-09T19:35:17.088Z,22.77
2023-04-09T19:39:19.652Z,30.53
2023-04-09T19:43:21.796Z,46.87
2023-04-09T19:47:24.147Z,23.83
2023-04-09T19:51:27.421Z,29.80
2023-04-09T19:55:29.463Z,20.33
2023-04-09T19:59:36.301Z,18.93
2023-04-09T20:03:38.742Z,14.87
2023-04-09T20:07:40.912Z,15.20
2023-04-09T20:11:43.368Z,14.63
2023-04-09T20:15:45.706Z,15.50
2023-04-09T20:19:47.827Z,15.97
2023-04-09T20:23:50.120Z,15.90
2023-04-09T20:27:55.981Z,14.07
2023-04-09T20:31:58.477Z,12.53
2023-04-09T20:36:01.041Z,13.20
2023-04-09T20:40:03.714Z,13.03
2023-04-09T20:44:06.334Z,13.17
2023-04-09T20:48:08.511Z,15.83
2023-04-09T20:52:10.782Z,18.50
2023-04-09T20:56:13.340Z,19.70
2023-04-09T21:00:15.597Z,14.07
2023-04-09T21:04:18.135Z,11.13
2023-04-09T21:08:20.770Z,16.07
2023-04-09T21:12:22.946Z,16.80
2023-04-09T21:16:27.315Z,16.27
2023-04-09T21:20:29.417Z,14.93
2023-04-09T21:24:33.982Z,12.77
2023-04-09T21:28:36.219Z,13.17
2023-04-09T21:32:38.622Z,13.20
2023-04-09T21:36:40.764Z,11.80
2023-04-09T21:40:43.146Z,11.93
2023-04-09T21:44:45.323Z,11.90
2023-04-09T21:48:47.612Z,12.77
2023-04-09T21:52:49.770Z,11.63
2023-04-09T21:56:51.887Z,10.20
2023-04-09T22:00:54.017Z,11.00
2023-04-09T22:04:56.276Z,11.73
2023-04-09T22:08:58.800Z,9.97
2023-04-09T22:13:01.244Z,10.60
2023-04-09T22:17:03.410Z,10.77
2023-04-09T22:21:05.961Z,10.60
2023-04-09T22:25:09.084Z,11.27
2023-04-09T22:29:11.290Z,10.93
2023-04-09T22:33:13.341Z,11.07
2023-04-09T22:37:17.165Z,11.47
2023-04-09T22:41:19.164Z,11.70
2023-04-09T22:45:21.300Z,11.93
2023-04-09T22:49:24.140Z,16.60
2023-04-09T22:53:27.788Z,15.20
2023-04-09T22:57:30.340Z,14.00
2023-04-09T23:01:32.770Z,13.23
2023-04-09T23:05:35.427Z,12.00
2023-04-09T23:09:37.616Z,12.80
2023-04-09T23:13:40.042Z,17.20
2023-04-09T23:17:42.331Z,19.00
2023-04-09T23:21:44.590Z,12.97
2023-04-09T23:25:46.678Z,12.80
2023-04-09T23:29:48.823Z,12.20
2023-04-09T23:33:52.068Z,11.00
2023-04-09T23:37:54.415Z,10.80
2023-04-09T23:41:57.854Z,10.17
2023-04-09T23:45:59.888Z,11.57
2023-04-09T23:50:05.791Z,11.03
2023-04-09T23:54:08.005Z,11.40
2023-04-09T23:58:10.161Z,10.23
